createdAt,value
2018-10-05T00:00:45.109Z,10.00
2018-10-05T00:03:13.164Z,9.70
2018-10-05T00:05:41.289Z,10.60
2018-10-05T00:08:09.720Z,7.10
2018-10-05T00:10:37.797Z,7.23
2018-10-05T00:13:06.137Z,8.10
2018-10-05T00:15:34.282Z,10.13
2018-10-05T00:18:02.377Z,6.60
2018-10-05T00:20:30.563Z,13.63
2018-10-05T00:22:58.784Z,8.80
2018-10-05T00:25:26.945Z,11.00
2018-10-05T00:27:55.044Z,6.60
2018-10-05T00:30:23.245Z,7.50
2018-10-05T00:32:51.320Z,10.20
2018-10-05T00:35:19.392Z,10.13
2018-10-05T00:37:47.461Z,7.30
2018-10-05T00:40:15.885Z,8.53
2018-10-05T00:42:44.086Z,7.67
2018-10-05T00:45:12.284Z,7.33
2018-10-05T00:47:40.354Z,11.30
2018-10-05T00:50:08.839Z,12.93
2018-10-05T00:52:36.908Z,8.20
2018-10-05T00:55:05.125Z,8.83
2018-10-05T00:57:33.293Z,8.60
2018-10-05T01:00:01.456Z,6.20
2018-10-05T01:02:29.723Z,12.63
2018-10-05T01:04:57.795Z,8.07
2018-10-05T01:07:25.890Z,7.40
2018-10-05T01:09:54.009Z,8.90
2018-10-05T01:12:22.178Z,8.57
2018-10-05T01:14:50.373Z,6.73
2018-10-05T01:17:18.437Z,7.80
2018-10-05T01:19:46.509Z,8.03
2018-10-05T01:22:14.590Z,7.23
2018-10-05T01:24:42.705Z,8.50
2018-10-05T01:27:11.105Z,7.60
2018-10-05T01:29:39.227Z,9.27
2018-10-05T01:32:07.301Z,9.20
2018-10-05T01:34:35.469Z,9.30
2018-10-05T01:37:03.563Z,11.17
2018-10-05T01:39:31.691Z,10.43
2018-10-05T01:41:59.914Z,7.93
2018-10-05T01:44:27.981Z,8.03
2018-10-05T01:46:56.125Z,6.60
2018-10-05T01:49:24.196Z,9.77
2018-10-05T01:51:52.369Z,7.10
2018-10-05T01:54:20.477Z,8.27
2018-10-05T01:56:48.545Z,8.20
2018-10-05T01:59:16.609Z,8.70
2018-10-05T02:01:44.674Z,8.83
2018-10-05T02:04:12.932Z,7.93
2018-10-05T02:06:41.004Z,10.47
2018-10-05T02:09:09.067Z,6.67
2018-10-05T02:11:37.155Z,9.10
2018-10-05T02:14:05.789Z,7.73
2018-10-05T02:16:33.938Z,8.00
2018-10-05T02:19:01.994Z,7.70
2018-10-05T02:21:30.056Z,8.53
2018-10-05T02:23:58.136Z,8.70
2018-10-05T02:26:26.217Z,9.13
2018-10-05T02:28:54.328Z,10.30
2018-10-05T02:31:22.489Z,6.30
2018-10-05T02:33:50.641Z,8.50
2018-10-05T02:36:18.717Z,7.67
2018-10-05T02:38:46.782Z,8.47
2018-10-05T02:41:14.884Z,9.17
2018-10-05T02:43:43.334Z,7.50
2018-10-05T02:46:11.408Z,8.13
2018-10-05T02:48:39.497Z,8.57
2018-10-05T02:51:07.695Z,8.90
2018-10-05T02:53:36.241Z,8.33
2018-10-05T02:56:04.442Z,9.07
2018-10-05T02:58:32.597Z,7.23
2018-10-05T03:01:06.384Z,9.17
2018-10-05T03:03:34.582Z,7.80
2018-10-05T03:06:02.641Z,11.60
2018-10-05T03:08:30.777Z,7.43
2018-10-05T03:10:58.838Z,9.53
2018-10-05T03:13:27.105Z,7.23
2018-10-05T03:15:55.164Z,10.23
2018-10-05T03:18:23.352Z,11.93
2018-10-05T03:20:51.525Z,8.13
2018-10-05T03:23:19.656Z,10.30
2018-10-05T03:25:47.772Z,10.97
2018-10-05T03:28:15.818Z,8.87
2018-10-05T03:30:43.989Z,12.70
2018-10-05T03:33:12.101Z,10.43
2018-10-05T03:35:40.167Z,8.57
2018-10-05T03:38:08.221Z,15.10
2018-10-05T03:40:36.288Z,11.60
2018-10-05T03:43:04.347Z,11.57
2018-10-05T03:45:32.436Z,7.93
2018-10-05T03:48:00.551Z,10.00
2018-10-05T03:50:28.615Z,9.27
2018-10-05T03:52:56.877Z,11.80
2018-10-05T03:55:24.936Z,7.53
2018-10-05T03:57:53.308Z,9.20
2018-10-05T04:00:21.381Z,10.67
2018-10-05T04:02:49.494Z,7.63
2018-10-05T04:05:17.625Z,7.90
2018-10-05T04:07:45.803Z,10.23
2018-10-05T04:10:13.886Z,8.40
2018-10-05T04:12:41.944Z,9.17
2018-10-05T04:15:10.041Z,10.17
2018-10-05T04:17:38.104Z,8.57
2018-10-05T04:20:06.191Z,11.23
2018-10-05T04:22:34.249Z,9.20
2018-10-05T04:25:02.313Z,8.90
2018-10-05T04:27:30.394Z,7.70
2018-10-05T04:29:58.495Z,8.27
2018-10-05T04:32:26.929Z,11.77
2018-10-05T04:34:55.024Z,9.50
2018-10-05T04:37:23.761Z,8.93
2018-10-05T04:39:52.078Z,8.60
2018-10-05T04:42:20.164Z,10.43
2018-10-05T04:44:48.628Z,10.67
2018-10-05T04:47:16.743Z,10.70
2018-10-05T04:49:44.927Z,9.10
2018-10-05T04:52:13.146Z,9.30
2018-10-05T04:54:41.265Z,9.10
2018-10-05T04:57:09.465Z,10.60
2018-10-05T04:59:37.541Z,13.43
2018-10-05T05:02:05.737Z,11.50
2018-10-05T05:04:33.926Z,10.50
2018-10-05T05:07:02.240Z,13.80
2018-10-05T05:09:30.311Z,15.20
2018-10-05T05:11:58.451Z,16.43
2018-10-05T05:14:26.763Z,15.73
2018-10-05T05:16:54.847Z,17.60
2018-10-05T05:19:22.928Z,16.73
2018-10-05T05:21:50.988Z,12.47
2018-10-05T05:24:19.209Z,14.97
2018-10-05T05:26:47.524Z,12.60
2018-10-05T05:29:15.636Z,12.43
2018-10-05T05:31:43.993Z,13.73
2018-10-05T05:34:12.098Z,34.30
2018-10-05T05:36:40.422Z,17.00
2018-10-05T05:39:09.040Z,14.03
2018-10-05T05:41:37.309Z,11.73
2018-10-05T05:44:05.575Z,11.97
2018-10-05T05:46:33.669Z,14.40
2018-10-05T05:49:01.741Z,17.43
2018-10-05T05:51:29.805Z,15.60
2018-10-05T05:53:58.139Z,16.40
2018-10-05T05:56:26.481Z,11.40
2018-10-05T05:58:54.649Z,14.30
2018-10-05T06:01:22.884Z,15.80
2018-10-05T06:03:50.956Z,11.30
2018-10-05T06:06:19.044Z,13.17
2018-10-05T06:08:47.323Z,15.07
2018-10-05T06:11:15.426Z,17.33
2018-10-05T06:13:43.589Z,16.10
2018-10-05T06:16:11.961Z,13.57
2018-10-05T06:18:40.145Z,14.43
2018-10-05T06:21:08.566Z,12.73
2018-10-05T06:23:36.798Z,11.97
2018-10-05T06:26:05.299Z,11.47
2018-10-05T06:28:33.637Z,11.13
2018-10-05T06:31:01.863Z,17.03
2018-10-05T06:33:30.106Z,10.77
2018-10-05T06:35:58.190Z,12.10
2018-10-05T06:38:26.309Z,14.47
2018-10-05T06:40:54.525Z,13.03
2018-10-05T06:43:22.596Z,12.70
2018-10-05T06:45:50.681Z,14.77
2018-10-05T06:48:18.759Z,13.97
2018-10-05T06:50:46.841Z,14.90
2018-10-05T06:53:15.491Z,14.40
2018-10-05T06:55:43.773Z,13.97
2018-10-05T06:58:11.865Z,12.50
2018-10-05T07:00:40.122Z,18.77
2018-10-05T07:03:08.221Z,21.67
2018-10-05T07:05:36.295Z,15.80
2018-10-05T07:08:04.635Z,21.23
2018-10-05T07:10:33.242Z,20.63
2018-10-05T07:13:01.682Z,19.47
2018-10-05T07:15:30.092Z,21.70
2018-10-05T07:17:58.293Z,19.57
2018-10-05T07:20:26.445Z,19.40
2018-10-05T07:22:54.619Z,20.93
2018-10-05T07:25:22.816Z,17.87
2018-10-05T07:27:50.906Z,18.33
2018-10-05T07:30:18.996Z,19.47
2018-10-05T07:32:47.099Z,22.23
2018-10-05T07:35:15.253Z,26.53
2018-10-05T07:37:43.364Z,23.70
2018-10-05T07:40:11.542Z,28.50
2018-10-05T07:42:39.620Z,26.43
2018-10-05T07:45:07.707Z,27.90
2018-10-05T07:47:35.889Z,23.97
2018-10-05T07:50:04.028Z,23.47
2018-10-05T07:52:32.145Z,22.27
2018-10-05T07:55:00.390Z,25.17
2018-10-05T07:57:28.599Z,20.40
2018-10-05T07:59:56.873Z,22.90
2018-10-05T08:02:25.128Z,24.57
2018-10-05T08:04:53.209Z,22.13
2018-10-05T08:07:21.294Z,25.70
2018-10-05T08:09:49.384Z,31.63
2018-10-05T08:12:17.500Z,28.80
2018-10-05T08:14:45.600Z,23.97
2018-10-05T08:17:13.729Z,25.97
2018-10-05T08:19:41.850Z,24.53
2018-10-05T08:22:10.105Z,21.87
2018-10-05T08:24:38.313Z,27.93
2018-10-05T08:27:06.666Z,24.30
2018-10-05T08:29:35.022Z,20.00
2018-10-05T08:32:03.200Z,20.43
2018-10-05T08:34:31.362Z,21.30
2018-10-05T08:36:59.628Z,21.80
2018-10-05T08:39:27.842Z,23.10
2018-10-05T08:41:55.973Z,21.73
2018-10-05T08:44:24.349Z,20.73
2018-10-05T08:46:52.470Z,24.90
2018-10-05T08:49:20.585Z,32.50
2018-10-05T08:51:48.856Z,26.43
2018-10-05T08:54:17.123Z,25.10
2018-10-05T08:56:45.183Z,23.40
2018-10-05T08:59:13.287Z,27.53
2018-10-05T09:01:41.396Z,25.60
2018-10-05T09:04:09.530Z,19.13
2018-10-05T09:06:37.605Z,21.07
2018-10-05T09:09:06.520Z,21.40
2018-10-05T09:11:34.588Z,24.80
2018-10-05T09:14:03.074Z,26.00
2018-10-05T09:16:31.236Z,21.93
2018-10-05T09:18:59.794Z,25.33
2018-10-05T09:21:27.889Z,21.40
2018-10-05T09:23:55.945Z,26.10
2018-10-05T09:26:24.022Z,28.00
2018-10-05T09:28:52.092Z,21.70
2018-10-05T09:31:20.252Z,23.50
2018-10-05T09:33:48.350Z,20.27
2018-10-05T09:36:16.440Z,30.10
2018-10-05T09:38:44.788Z,22.83
2018-10-05T09:41:12.889Z,20.53
2018-10-05T09:43:41.078Z,21.20
2018-10-05T09:46:09.205Z,24.60
2018-10-05T09:48:37.330Z,22.10
2018-10-05T09:51:05.499Z,20.83
2018-10-05T09:53:33.693Z,25.33
2018-10-05T09:56:01.917Z,22.63
2018-10-05T09:58:30.120Z,20.33
2018-10-05T10:01:03.708Z,19.73
2018-10-05T10:03:34.404Z,22.40
2018-10-05T10:06:03.012Z,23.73
2018-10-05T10:08:31.539Z,21.20
2018-10-05T10:10:59.991Z,19.37
2018-10-05T10:13:28.067Z,19.73
2018-10-05T10:15:56.411Z,23.73
2018-10-05T10:18:24.611Z,18.57
2018-10-05T10:20:52.802Z,18.23
2018-10-05T10:23:20.877Z,19.13
2018-10-05T10:25:49.016Z,18.07
2018-10-05T10:28:17.546Z,16.40
2018-10-05T10:30:46.033Z,18.33
2018-10-05T10:33:14.127Z,17.77
2018-10-05T10:35:42.416Z,19.50
2018-10-05T10:38:10.564Z,18.53
2018-10-05T10:40:38.728Z,15.63
2018-10-05T10:43:07.168Z,15.50
2018-10-05T10:45:35.339Z,17.17
2018-10-05T10:48:03.874Z,16.30
2018-10-05T10:50:32.129Z,14.80
2018-10-05T10:53:00.346Z,16.10
2018-10-05T10:55:28.697Z,13.93
2018-10-05T10:57:56.757Z,14.70
2018-10-05T11:00:24.827Z,16.13
2018-10-05T11:02:53.045Z,13.60
2018-10-05T11:05:21.117Z,14.87
2018-10-05T11:07:49.292Z,14.93
2018-10-05T11:10:17.387Z,12.10
2018-10-05T11:12:45.515Z,13.83
2018-10-05T11:15:13.671Z,13.90
2018-10-05T11:17:41.776Z,16.40
2018-10-05T11:20:10.316Z,18.80
2018-10-05T11:22:38.791Z,13.87
2018-10-05T11:25:07.004Z,12.50
2018-10-05T11:27:35.562Z,13.80
2018-10-05T11:30:03.653Z,12.90
2018-10-05T11:32:31.811Z,12.20
2018-10-05T11:34:59.998Z,13.37
2018-10-05T11:37:28.282Z,18.60
2018-10-05T11:39:56.531Z,13.30
2018-10-05T11:42:24.616Z,12.03
2018-10-05T11:44:52.772Z,13.20
2018-10-05T11:47:20.851Z,12.03
2018-10-05T11:49:48.983Z,11.40
2018-10-05T11:52:17.107Z,16.97
2018-10-05T11:54:45.404Z,14.03
2018-10-05T11:57:13.624Z,11.67
2018-10-05T11:59:41.867Z,10.70
2018-10-05T12:02:10.150Z,11.17
2018-10-05T12:04:38.219Z,11.17
2018-10-05T12:07:06.654Z,11.30
2018-10-05T12:09:34.705Z,11.03
2018-10-05T12:12:02.818Z,9.20
2018-10-05T12:14:31.101Z,10.73
2018-10-05T12:16:59.196Z,10.17
2018-10-05T12:19:27.388Z,9.50
2018-10-05T12:21:55.533Z,9.20
2018-10-05T12:24:23.841Z,10.40
2018-10-05T12:26:52.068Z,8.97
2018-10-05T12:29:20.249Z,9.60
2018-10-05T12:31:48.674Z,7.83
2018-10-05T12:34:16.838Z,8.73
2018-10-05T12:36:45.026Z,8.43
2018-10-05T12:39:13.248Z,8.37
2018-10-05T12:41:41.377Z,9.67
2018-10-05T12:44:09.453Z,7.93
2018-10-05T12:46:37.678Z,7.90
2018-10-05T12:49:06.197Z,7.93
2018-10-05T12:51:34.532Z,6.93
2018-10-05T12:54:02.619Z,7.00
2018-10-05T12:56:30.861Z,7.07
2018-10-05T12:58:58.990Z,6.00
2018-10-05T13:01:27.085Z,9.57
2018-10-05T13:03:55.322Z,6.60
2018-10-05T13:06:23.654Z,9.33
2018-10-05T13:08:52.058Z,7.00
2018-10-05T13:11:20.261Z,7.57
2018-10-05T13:13:48.344Z,7.50
2018-10-05T13:16:16.815Z,6.43
2018-10-05T13:18:44.927Z,6.60
2018-10-05T13:21:13.204Z,6.87
2018-10-05T13:23:41.343Z,6.67
2018-10-05T13:26:09.937Z,8.03
2018-10-05T13:28:38.136Z,8.20
2018-10-05T13:31:06.781Z,6.20
2018-10-05T13:33:34.966Z,7.50
2018-10-05T13:36:03.405Z,6.73
2018-10-05T13:38:31.537Z,6.03
2018-10-05T13:40:59.612Z,6.20
2018-10-05T13:43:27.677Z,5.40
2018-10-05T13:45:55.777Z,6.20
2018-10-05T13:48:24.024Z,5.03
2018-10-05T13:50:52.149Z,7.50
2018-10-05T13:53:20.302Z,8.57
2018-10-05T13:55:50.114Z,7.73
2018-10-05T13:58:18.211Z,6.77
2018-10-05T14:00:46.292Z,7.23
2018-10-05T14:03:14.720Z,5.90
2018-10-05T14:05:42.882Z,7.80
2018-10-05T14:08:11.165Z,7.50
2018-10-05T14:10:39.392Z,7.90
2018-10-05T14:13:07.659Z,7.00
2018-10-05T14:15:35.777Z,7.13
2018-10-05T14:18:03.905Z,6.40
2018-10-05T14:20:32.056Z,7.60
2018-10-05T14:23:00.494Z,11.30
2018-10-05T14:25:28.664Z,9.37
2018-10-05T14:27:56.992Z,8.60
2018-10-05T14:30:25.121Z,6.70
2018-10-05T14:32:53.241Z,5.83
2018-10-05T14:35:21.448Z,5.90
2018-10-05T14:37:49.715Z,5.73
2018-10-05T14:40:18.065Z,8.10
2018-10-05T14:42:46.148Z,7.93
2018-10-05T14:45:14.217Z,7.87
2018-10-05T14:47:42.405Z,7.00
2018-10-05T14:50:10.782Z,6.17
2018-10-05T14:52:39.059Z,8.90
2018-10-05T14:55:07.224Z,7.40
2018-10-05T14:57:35.362Z,7.70
2018-10-05T15:00:03.770Z,7.33
2018-10-05T15:02:31.883Z,7.33
2018-10-05T15:05:00.336Z,6.73
2018-10-05T15:07:28.409Z,7.87
2018-10-05T15:09:56.485Z,7.27
2018-10-05T15:12:24.645Z,7.43
2018-10-05T15:14:52.753Z,6.43
2018-10-05T15:17:20.905Z,7.53
2018-10-05T15:19:49.093Z,9.03
2018-10-05T15:22:17.289Z,8.13
2018-10-05T15:24:45.411Z,9.63
2018-10-05T15:27:13.533Z,8.80
2018-10-05T15:29:41.768Z,7.13
2018-10-05T15:32:09.845Z,6.70
2018-10-05T15:34:37.895Z,7.77
2018-10-05T15:37:06.212Z,8.47
2018-10-05T15:39:34.293Z,6.87
2018-10-05T15:42:02.383Z,7.57
2018-10-05T15:44:30.905Z,6.53
2018-10-05T15:47:07.235Z,8.50
2018-10-05T15:49:36.073Z,8.17
2018-10-05T15:52:04.475Z,7.10
2018-10-05T15:54:32.622Z,5.73
2018-10-05T15:57:00.753Z,6.60
2018-10-05T15:59:29.704Z,6.00
2018-10-05T16:01:58.317Z,7.63
2018-10-05T16:04:26.907Z,7.80
2018-10-05T16:06:54.981Z,7.20
2018-10-05T16:09:23.228Z,6.80
2018-10-05T16:11:51.409Z,6.10
2018-10-05T16:14:19.553Z,12.33
2018-10-05T16:16:48.111Z,11.13
2018-10-05T16:19:16.292Z,5.70
2018-10-05T16:21:44.624Z,9.20
2018-10-05T16:24:21.329Z,6.23
2018-10-05T16:26:49.875Z,5.60
2018-10-05T16:29:18.081Z,5.60
2018-10-05T16:31:46.220Z,5.73
2018-10-05T16:34:14.335Z,10.47
2018-10-05T16:36:42.509Z,5.93
2018-10-05T16:39:11.551Z,7.47
2018-10-05T16:41:39.663Z,8.60
2018-10-05T16:44:07.993Z,8.27
2018-10-05T16:46:36.706Z,5.87
2018-10-05T16:49:04.864Z,6.17
2018-10-05T16:51:32.965Z,5.53
2018-10-05T16:54:01.186Z,5.43
2018-10-05T16:56:29.524Z,5.60
2018-10-05T16:58:57.900Z,6.50
2018-10-05T17:01:26.053Z,6.40
2018-10-05T17:03:54.247Z,6.40
2018-10-05T17:06:22.848Z,7.60
2018-10-05T17:08:53.512Z,8.13
2018-10-05T17:11:21.741Z,6.97
2018-10-05T17:13:49.845Z,7.07
2018-10-05T17:16:18.075Z,8.27
2018-10-05T17:18:46.192Z,11.07
2018-10-05T17:21:14.372Z,10.10
2018-10-05T17:23:42.526Z,7.93
2018-10-05T17:26:10.866Z,7.97
2018-10-05T17:28:38.972Z,12.60
2018-10-05T17:31:07.341Z,7.53
2018-10-05T17:33:35.630Z,11.10
2018-10-05T17:36:03.732Z,7.00
2018-10-05T17:38:31.871Z,10.07
2018-10-05T17:40:59.956Z,8.30
2018-10-05T17:43:28.639Z,7.57
2018-10-05T17:45:56.745Z,8.37
2018-10-05T17:48:24.881Z,7.60
2018-10-05T17:50:52.960Z,8.30
2018-10-05T17:53:21.116Z,8.93
2018-10-05T17:55:49.315Z,7.80
2018-10-05T17:58:17.577Z,8.83
2018-10-05T18:00:46.082Z,9.83
2018-10-05T18:03:14.236Z,8.17
2018-10-05T18:05:42.528Z,9.30
2018-10-05T18:08:10.809Z,9.37
2018-10-05T18:10:39.089Z,8.00
2018-10-05T18:13:07.160Z,9.97
2018-10-05T18:15:35.618Z,9.10
2018-10-05T18:18:03.722Z,12.90
2018-10-05T18:20:31.961Z,7.63
2018-10-05T18:23:00.068Z,8.93
2018-10-05T18:25:28.130Z,8.43
2018-10-05T18:27:56.392Z,8.17
2018-10-05T18:30:24.652Z,11.10
2018-10-05T18:32:52.826Z,8.70
2018-10-05T18:35:20.961Z,9.20
2018-10-05T18:37:49.204Z,8.70
2018-10-05T18:40:17.415Z,8.37
2018-10-05T18:42:45.648Z,9.73
2018-10-05T18:45:14.047Z,9.43
2018-10-05T18:47:42.140Z,10.30
2018-10-05T18:50:10.279Z,9.43
2018-10-05T18:52:38.376Z,8.83
2018-10-05T18:55:06.626Z,10.40
2018-10-05T18:57:34.828Z,9.50
2018-10-05T19:00:03.160Z,10.53
2018-10-05T19:02:31.391Z,9.00
2018-10-05T19:04:59.461Z,9.40
2018-10-05T19:07:27.553Z,12.67
2018-10-05T19:09:55.737Z,12.50
2018-10-05T19:12:23.823Z,9.70
2018-10-05T19:14:52.042Z,10.03
2018-10-05T19:17:20.209Z,10.43
2018-10-05T19:19:48.324Z,10.53
2018-10-05T19:22:16.581Z,9.23
2018-10-05T19:24:44.748Z,9.00
2018-10-05T19:27:12.917Z,9.40
2018-10-05T19:29:41.223Z,9.50
2018-10-05T19:32:09.400Z,10.53
2018-10-05T19:34:37.563Z,10.50
2018-10-05T19:37:06.074Z,9.80
2018-10-05T19:39:34.200Z,10.63
2018-10-05T19:42:02.399Z,10.10
2018-10-05T19:44:30.787Z,13.77
2018-10-05T19:46:59.072Z,10.30
2018-10-05T19:49:27.238Z,11.70
2018-10-05T19:51:55.694Z,11.27
2018-10-05T19:54:23.756Z,12.00
2018-10-05T19:56:51.973Z,10.80
2018-10-05T19:59:20.201Z,10.80
2018-10-05T20:01:48.349Z,10.47
2018-10-05T20:04:16.665Z,10.87
2018-10-05T20:06:44.851Z,12.37
2018-10-05T20:09:13.130Z,15.00
2018-10-05T20:11:41.298Z,12.83
2018-10-05T20:14:09.432Z,13.03
2018-10-05T20:16:37.533Z,10.67
2018-10-05T20:19:05.833Z,10.60
2018-10-05T20:21:33.961Z,10.40
2018-10-05T20:24:02.097Z,12.33
2018-10-05T20:26:30.224Z,11.50
2018-10-05T20:28:58.369Z,12.40
2018-10-05T20:31:26.541Z,11.37
2018-10-05T20:33:54.607Z,10.73
2018-10-05T20:36:23.178Z,12.03
2018-10-05T20:38:51.543Z,10.80
2018-10-05T20:41:19.804Z,13.57
2018-10-05T20:43:47.926Z,11.97
2018-10-05T20:46:16.135Z,15.50
2018-10-05T20:48:44.265Z,13.03
2018-10-05T20:51:12.539Z,12.53
2018-10-05T20:53:40.648Z,15.10
2018-10-05T20:56:08.869Z,11.70
2018-10-05T20:58:37.012Z,11.00
2018-10-05T21:01:05.204Z,10.40
2018-10-05T21:03:33.295Z,13.17
2018-10-05T21:06:01.366Z,11.53
2018-10-05T21:08:29.638Z,12.33
2018-10-05T21:10:57.826Z,13.10
2018-10-05T21:13:25.916Z,12.40
2018-10-05T21:15:54.109Z,12.30
2018-10-05T21:18:22.230Z,11.73
2018-10-05T21:20:50.318Z,12.30
2018-10-05T21:23:18.527Z,12.63
2018-10-05T21:25:46.666Z,13.80
2018-10-05T21:28:14.882Z,13.13
2018-10-05T21:30:42.998Z,14.50
2018-10-05T21:33:11.120Z,12.60
2018-10-05T21:35:39.595Z,14.80
2018-10-05T21:38:07.654Z,18.50
2018-10-05T21:40:35.745Z,14.40
2018-10-05T21:43:03.890Z,16.07
2018-10-05T21:45:31.982Z,15.53
2018-10-05T21:48:00.072Z,13.87
2018-10-05T21:50:28.332Z,14.20
2018-10-05T21:52:56.561Z,15.40
2018-10-05T21:55:24.644Z,17.33
2018-10-05T21:57:53.032Z,17.30
2018-10-05T22:00:21.182Z,16.67
2018-10-05T22:02:49.255Z,18.27
2018-10-05T22:05:17.364Z,16.47
2018-10-05T22:07:45.476Z,15.83
2018-10-05T22:10:13.701Z,16.37
2018-10-05T22:12:41.833Z,16.27
2018-10-05T22:15:10.049Z,16.47
2018-10-05T22:17:38.146Z,15.23
2018-10-05T22:20:06.264Z,17.20
2018-10-05T22:22:34.725Z,15.30
2018-10-05T22:25:02.791Z,16.20
2018-10-05T22:27:30.895Z,15.40
2018-10-05T22:29:59.461Z,14.93
2018-10-05T22:32:27.639Z,16.00
2018-10-05T22:34:55.720Z,17.47
2018-10-05T22:37:24.060Z,19.77
2018-10-05T22:39:52.140Z,17.43
2018-10-05T22:42:20.188Z,17.63
2018-10-05T22:44:48.298Z,16.83
2018-10-05T22:47:16.473Z,18.17
2018-10-05T22:49:44.562Z,17.50
2018-10-05T22:52:12.673Z,18.23
2018-10-05T22:54:40.776Z,17.40
2018-10-05T22:57:08.997Z,19.70
2018-10-05T22:59:37.102Z,16.87
2018-10-05T23:02:05.542Z,16.83
2018-10-05T23:04:33.665Z,16.90
2018-10-05T23:07:01.741Z,18.63
2018-10-05T23:09:29.820Z,15.73
2018-10-05T23:11:58.001Z,14.57
2018-10-05T23:14:26.097Z,14.90
2018-10-05T23:16:54.176Z,15.37
2018-10-05T23:19:22.240Z,15.80
2018-10-05T23:21:50.408Z,16.53
2018-10-05T23:24:18.480Z,14.30
2018-10-05T23:26:46.652Z,13.30
2018-10-05T23:29:14.745Z,13.23
2018-10-05T23:31:42.842Z,16.20
2018-10-05T23:34:10.946Z,16.23
2018-10-05T23:36:39.156Z,14.60
2018-10-05T23:39:08.038Z,14.60
2018-10-05T23:41:36.493Z,14.70
2018-10-05T23:44:04.601Z,15.53
2018-10-05T23:46:32.707Z,16.73
2018-10-05T23:49:00.784Z,16.60
2018-10-05T23:51:28.877Z,15.20
2018-10-05T23:53:57.072Z,13.07
2018-10-05T23:56:25.148Z,17.90
2018-10-05T23:58:53.255Z,15.63
